createdAt,value
2018-11-06T00:01:36.004Z,96.00
2018-11-06T00:04:08.349Z,95.20
2018-11-06T00:06:40.578Z,93.80
2018-11-06T00:09:12.971Z,91.60
2018-11-06T00:11:45.133Z,90.60
2018-11-06T00:14:17.443Z,99.00
2018-11-06T00:16:49.468Z,96.20
2018-11-06T00:19:21.458Z,97.25
2018-11-06T00:21:54.283Z,98.80
2018-11-06T00:24:26.349Z,98.00
2018-11-06T00:26:58.404Z,96.80
2018-11-06T00:29:30.382Z,93.60
2018-11-06T00:32:02.927Z,98.60
2018-11-06T00:34:35.162Z,102.80
2018-11-06T00:37:07.505Z,100.75
2018-11-06T00:39:39.848Z,95.60
2018-11-06T00:42:12.041Z,96.25
2018-11-06T00:44:44.354Z,92.75
2018-11-06T00:47:16.610Z,95.50
2018-11-06T00:49:48.634Z,100.00
2018-11-06T00:52:21.279Z,96.20
2018-11-06T00:54:53.514Z,98.60
2018-11-06T00:57:25.468Z,98.50
2018-11-06T00:59:58.154Z,102.60
2018-11-06T01:02:30.407Z,101.00
2018-11-06T01:05:02.631Z,93.50
2018-11-06T01:07:34.908Z,101.40
2018-11-06T01:10:07.580Z,95.50
2018-11-06T01:12:40.145Z,95.40
2018-11-06T01:15:13.924Z,96.50
2018-11-06T01:17:46.590Z,97.00
2018-11-06T01:20:19.745Z,101.75
2018-11-06T01:22:52.470Z,101.40
2018-11-06T01:25:24.640Z,105.75
2018-11-06T01:27:56.760Z,96.50
2018-11-06T01:30:28.905Z,98.50
2018-11-06T01:33:02.459Z,106.00
2018-11-06T01:35:35.033Z,102.00
2018-11-06T01:38:07.512Z,101.00
2018-11-06T01:40:39.588Z,101.25
2018-11-06T01:43:11.707Z,104.00
2018-11-06T01:45:43.654Z,103.00
2018-11-06T01:48:15.528Z,96.00
2018-11-06T01:50:47.818Z,101.75
2018-11-06T01:53:20.342Z,101.25
2018-11-06T01:55:52.550Z,110.75
2018-11-06T01:58:24.761Z,107.50
2018-11-06T02:00:57.029Z,108.75
2018-11-06T02:03:29.137Z,111.50
2018-11-06T02:06:01.421Z,108.75
2018-11-06T02:08:33.264Z,114.25
2018-11-06T02:11:05.687Z,113.75
2018-11-06T02:13:37.842Z,110.25
2018-11-06T02:16:10.133Z,115.00
2018-11-06T02:18:42.594Z,111.00
2018-11-06T02:21:14.798Z,113.00
2018-11-06T02:23:47.213Z,115.75
2018-11-06T02:26:19.620Z,136.25
2018-11-06T02:28:51.748Z,133.50
2018-11-06T02:31:23.670Z,131.25
2018-11-06T02:33:56.157Z,141.50
2018-11-06T02:36:28.362Z,140.75
2018-11-06T02:39:00.483Z,139.00
2018-11-06T02:41:32.637Z,139.75
2018-11-06T02:44:04.520Z,140.25
2018-11-06T02:46:36.721Z,138.75
2018-11-06T02:49:08.727Z,142.25
2018-11-06T02:51:40.955Z,139.25
2018-11-06T02:54:13.632Z,146.25
2018-11-06T02:56:45.756Z,137.00
2018-11-06T02:59:17.812Z,136.00
2018-11-06T03:01:50.051Z,136.25
2018-11-06T03:04:21.933Z,138.50
2018-11-06T03:06:54.053Z,141.00
2018-11-06T03:09:26.413Z,137.75
2018-11-06T03:11:58.661Z,135.25
2018-11-06T03:14:30.722Z,140.50
2018-11-06T03:17:03.051Z,133.00
2018-11-06T03:19:35.239Z,135.00
2018-11-06T03:22:07.306Z,132.75
2018-11-06T03:24:39.786Z,133.75
2018-11-06T03:27:11.883Z,132.25
2018-11-06T03:29:45.241Z,136.75
2018-11-06T03:32:17.296Z,133.75
2018-11-06T03:34:49.395Z,138.25
2018-11-06T03:37:21.379Z,139.00
2018-11-06T03:39:53.460Z,141.25
2018-11-06T03:42:25.389Z,135.50
2018-11-06T03:44:57.578Z,134.50
2018-11-06T03:47:29.585Z,132.00
2018-11-06T03:50:02.144Z,134.50
2018-11-06T03:52:34.379Z,136.00
2018-11-06T03:55:06.957Z,128.00
2018-11-06T03:57:39.329Z,133.75
2018-11-06T04:00:15.942Z,129.50
2018-11-06T04:02:48.103Z,131.25
2018-11-06T04:05:20.330Z,126.25
2018-11-06T04:07:52.734Z,128.75
2018-11-06T04:10:24.710Z,125.75
2018-11-06T04:12:56.968Z,120.00
2018-11-06T04:15:28.849Z,121.75
2018-11-06T04:18:00.994Z,117.50
2018-11-06T04:20:33.116Z,122.25
2018-11-06T04:23:04.883Z,118.00
2018-11-06T04:25:37.549Z,118.00
2018-11-06T04:28:09.575Z,109.50
2018-11-06T04:30:42.007Z,110.00
2018-11-06T04:33:13.940Z,108.25
2018-11-06T04:35:46.195Z,114.25
2018-11-06T04:38:18.281Z,110.00
2018-11-06T04:40:50.302Z,108.75
2018-11-06T04:43:22.017Z,108.50
2018-11-06T04:45:53.875Z,115.00
2018-11-06T04:48:26.020Z,106.50
2018-11-06T04:50:58.083Z,105.50
2018-11-06T04:53:30.673Z,107.75
2018-11-06T04:56:03.526Z,109.00
2018-11-06T04:58:35.684Z,104.50
2018-11-06T05:03:47.969Z,101.25
2018-11-06T05:06:20.233Z,105.25
2018-11-06T05:08:52.348Z,105.25
2018-11-06T05:11:24.745Z,101.25
2018-11-06T05:13:57.083Z,93.60
2018-11-06T05:16:29.058Z,84.00
2018-11-06T05:19:01.366Z,87.80
2018-11-06T05:21:33.454Z,84.40
2018-11-06T05:24:05.773Z,81.80
2018-11-06T05:26:38.283Z,73.00
2018-11-06T05:29:10.347Z,76.80
2018-11-06T05:31:42.058Z,90.00
2018-11-06T05:34:14.561Z,80.80
2018-11-06T05:36:46.976Z,82.80
2018-11-06T05:39:19.124Z,88.60
2018-11-06T05:41:51.384Z,86.40
2018-11-06T05:44:23.445Z,85.20
2018-11-06T05:46:55.360Z,88.60
2018-11-06T05:49:27.608Z,87.00
2018-11-06T05:51:59.568Z,87.40
2018-11-06T05:54:31.464Z,89.40
2018-11-06T05:57:04.035Z,89.00
2018-11-06T05:59:36.295Z,88.40
2018-11-06T06:02:08.476Z,86.40
2018-11-06T06:04:40.935Z,86.00
2018-11-06T06:07:13.250Z,92.40
2018-11-06T06:09:45.651Z,91.40
2018-11-06T06:12:17.711Z,84.80
2018-11-06T06:14:50.021Z,89.80
2018-11-06T06:17:23.890Z,94.20
2018-11-06T06:19:58.316Z,87.80
2018-11-06T06:22:31.339Z,84.40
2018-11-06T06:25:04.176Z,90.40
2018-11-06T06:27:36.679Z,88.80
2018-11-06T06:30:11.320Z,85.80
2018-11-06T06:32:43.438Z,85.00
2018-11-06T06:35:15.617Z,87.40
2018-11-06T06:37:47.816Z,81.00
2018-11-06T06:40:20.174Z,78.40
2018-11-06T06:42:52.322Z,75.80
2018-11-06T06:45:24.615Z,80.40
2018-11-06T06:47:56.658Z,79.60
2018-11-06T06:50:29.044Z,78.00
2018-11-06T06:53:01.275Z,72.00
2018-11-06T06:55:33.411Z,67.20
2018-11-06T06:58:05.869Z,68.00
2018-11-06T07:00:38.091Z,79.00
2018-11-06T07:03:10.101Z,72.60
2018-11-06T07:05:42.338Z,72.80
2018-11-06T07:08:14.499Z,70.80
2018-11-06T07:10:46.756Z,62.80
2018-11-06T07:13:18.942Z,64.20
2018-11-06T07:15:51.232Z,64.00
2018-11-06T07:18:23.453Z,64.60
2018-11-06T07:20:55.497Z,60.80
2018-11-06T07:23:28.059Z,61.20
2018-11-06T07:26:00.226Z,53.20
2018-11-06T07:28:32.941Z,55.60
2018-11-06T07:31:05.107Z,53.40
2018-11-06T07:33:37.466Z,56.80
2018-11-06T07:36:09.593Z,58.60
2018-11-06T07:38:41.691Z,55.00
2018-11-06T07:41:13.688Z,48.00
2018-11-06T07:43:45.945Z,48.60
2018-11-06T07:46:17.979Z,49.20
2018-11-06T07:48:49.830Z,51.60
2018-11-06T07:51:22.018Z,54.20
2018-11-06T07:53:54.045Z,51.60
2018-11-06T07:56:26.028Z,49.80
2018-11-06T07:58:58.956Z,52.00
2018-11-06T08:01:31.062Z,42.00
2018-11-06T08:04:03.055Z,39.40
2018-11-06T08:06:35.270Z,43.60
2018-11-06T08:09:10.323Z,44.60
2018-11-06T08:11:42.373Z,42.00
2018-11-06T08:14:14.628Z,39.20
2018-11-06T08:16:46.662Z,38.80
2018-11-06T08:19:18.907Z,39.80
2018-11-06T08:21:50.807Z,39.40
2018-11-06T08:24:23.589Z,44.60
2018-11-06T08:26:55.339Z,42.40
2018-11-06T08:29:27.548Z,46.80
2018-11-06T08:32:00.427Z,44.60
2018-11-06T08:34:32.251Z,45.20
2018-11-06T08:37:04.319Z,38.60
2018-11-06T08:39:36.747Z,43.40
2018-11-06T08:42:08.860Z,39.20
2018-11-06T08:44:40.757Z,43.80
2018-11-06T08:47:13.028Z,41.40
2018-11-06T08:49:44.889Z,39.80
2018-11-06T08:52:16.834Z,37.60
2018-11-06T08:54:48.669Z,40.40
2018-11-06T08:57:20.900Z,39.40
2018-11-06T08:59:53.947Z,45.00
2018-11-06T09:02:26.234Z,39.60
2018-11-06T09:04:58.292Z,39.20
2018-11-06T09:07:30.430Z,42.80
2018-11-06T09:10:02.450Z,40.60
2018-11-06T09:12:34.588Z,41.20
2018-11-06T09:15:06.977Z,44.20
2018-11-06T09:17:39.797Z,39.20
2018-11-06T09:20:13.851Z,40.80
2018-11-06T09:22:45.980Z,41.20
2018-11-06T09:25:19.246Z,38.60
2018-11-06T09:27:51.394Z,41.20
2018-11-06T09:30:23.860Z,46.00
2018-11-06T09:32:55.928Z,44.00
2018-11-06T09:35:28.218Z,52.60
2018-11-06T09:38:00.219Z,48.20
2018-11-06T09:43:04.250Z,47.60
2018-11-06T09:45:36.357Z,47.20
2018-11-06T09:48:08.227Z,38.40
2018-11-06T09:50:40.895Z,49.80
2018-11-06T09:53:13.308Z,50.40
2018-11-06T09:55:45.337Z,45.80
2018-11-06T09:58:17.643Z,41.00
2018-11-06T10:00:50.355Z,39.40
2018-11-06T10:03:22.600Z,41.60
2018-11-06T10:05:54.955Z,40.80
2018-11-06T10:08:27.043Z,39.00
2018-11-06T10:10:59.111Z,38.00
2018-11-06T10:13:31.504Z,39.20
2018-11-06T10:16:03.623Z,42.40
2018-11-06T10:18:35.933Z,42.60
2018-11-06T10:21:08.335Z,45.60
2018-11-06T10:23:40.463Z,39.60
2018-11-06T10:26:12.688Z,45.00
2018-11-06T10:28:44.994Z,45.20
2018-11-06T10:31:17.774Z,42.20
2018-11-06T10:33:49.839Z,41.20
2018-11-06T10:36:22.025Z,45.80
2018-11-06T10:38:54.339Z,45.20
2018-11-06T10:41:26.469Z,49.00
2018-11-06T10:43:58.793Z,49.80
2018-11-06T10:46:30.682Z,54.80
2018-11-06T10:49:02.843Z,55.60
2018-11-06T10:51:36.475Z,54.40
2018-11-06T10:54:08.765Z,54.40
2018-11-06T10:56:40.600Z,56.20
2018-11-06T10:59:13.001Z,57.60
2018-11-06T11:01:50.077Z,53.60
2018-11-06T11:04:25.250Z,54.40
2018-11-06T11:06:57.133Z,54.40
2018-11-06T11:09:29.182Z,49.20
2018-11-06T11:12:01.378Z,50.80
2018-11-06T11:14:33.453Z,50.40
2018-11-06T11:17:05.498Z,53.40
2018-11-06T11:19:37.526Z,55.40
2018-11-06T11:22:09.609Z,53.20
2018-11-06T11:24:41.576Z,53.60
2018-11-06T11:27:13.704Z,54.80
2018-11-06T11:29:46.199Z,56.00
2018-11-06T11:32:18.831Z,54.40
2018-11-06T11:34:50.805Z,51.60
2018-11-06T11:37:23.117Z,59.80
2018-11-06T11:39:55.264Z,54.20
2018-11-06T11:42:27.663Z,56.80
2018-11-06T11:44:59.909Z,57.60
2018-11-06T11:47:32.070Z,57.00
2018-11-06T11:50:04.449Z,57.40
2018-11-06T11:52:37.017Z,57.60
2018-11-06T11:55:09.626Z,56.40
2018-11-06T11:57:41.927Z,59.60
2018-11-06T12:00:15.859Z,56.20
2018-11-06T12:02:48.172Z,61.00
2018-11-06T12:05:21.073Z,61.80
2018-11-06T12:07:53.220Z,61.60
2018-11-06T12:10:25.507Z,65.20
2018-11-06T12:12:57.567Z,66.00
2018-11-06T12:15:30.235Z,62.40
2018-11-06T12:18:02.355Z,60.40
2018-11-06T12:20:34.426Z,65.00
2018-11-06T12:23:06.838Z,59.60
2018-11-06T12:25:39.058Z,58.80
2018-11-06T12:28:11.053Z,66.00
2018-11-06T12:30:43.733Z,70.00
2018-11-06T12:33:16.548Z,66.20
2018-11-06T12:35:48.762Z,64.40
2018-11-06T12:38:20.730Z,52.20
2018-11-06T12:40:52.820Z,53.20
2018-11-06T12:43:24.801Z,53.20
2018-11-06T12:45:56.786Z,47.80
2018-11-06T12:48:28.847Z,53.80
2018-11-06T12:51:01.076Z,59.00
2018-11-06T12:53:33.061Z,59.60
2018-11-06T12:56:05.296Z,60.40
2018-11-06T12:58:37.336Z,57.20
2018-11-06T13:01:09.755Z,63.00
2018-11-06T13:03:42.570Z,67.40
2018-11-06T13:06:15.110Z,79.00
2018-11-06T13:08:52.337Z,81.80
2018-11-06T13:11:24.612Z,83.60
2018-11-06T13:13:56.395Z,86.00
2018-11-06T13:16:28.513Z,95.20
2018-11-06T13:19:00.382Z,96.60
2018-11-06T13:21:32.714Z,96.00
2018-11-06T13:24:04.392Z,101.25
2018-11-06T13:26:36.749Z,100.00
2018-11-06T13:29:09.165Z,103.25
2018-11-06T13:31:41.481Z,102.00
2018-11-06T13:34:13.938Z,108.75
2018-11-06T13:36:45.997Z,109.25
2018-11-06T13:39:17.928Z,114.00
2018-11-06T13:41:50.379Z,106.00
2018-11-06T13:44:22.486Z,111.00
2018-11-06T13:46:54.582Z,109.50
2018-11-06T13:49:27.189Z,109.00
2018-11-06T13:51:59.443Z,109.00
2018-11-06T13:54:31.330Z,104.25
2018-11-06T13:57:03.518Z,110.50
2018-11-06T13:59:35.528Z,104.50
2018-11-06T14:02:08.167Z,103.75
2018-11-06T14:04:42.188Z,107.00
2018-11-06T14:07:15.210Z,100.75
2018-11-06T14:09:47.854Z,102.50
2018-11-06T14:12:21.375Z,106.75
2018-11-06T14:14:54.838Z,104.75
2018-11-06T14:17:27.655Z,103.00
2018-11-06T14:20:00.589Z,101.25
2018-11-06T14:22:33.569Z,102.25
2018-11-06T14:25:07.281Z,114.50
2018-11-06T14:27:40.412Z,105.50
2018-11-06T14:30:19.481Z,108.75
2018-11-06T14:32:52.307Z,108.25
2018-11-06T14:35:25.569Z,106.75
2018-11-06T14:37:58.101Z,101.50
2018-11-06T14:40:31.522Z,100.25
2018-11-06T14:43:04.473Z,100.50
2018-11-06T14:45:37.204Z,98.00
2018-11-06T14:48:10.324Z,100.80
2018-11-06T14:50:42.912Z,96.40
2018-11-06T14:53:16.026Z,102.80
2018-11-06T14:55:48.613Z,98.80
2018-11-06T14:58:21.446Z,89.40
2018-11-06T15:00:54.309Z,96.80
2018-11-06T15:03:27.213Z,97.80
2018-11-06T15:06:00.840Z,94.60
2018-11-06T15:08:34.862Z,96.60
2018-11-06T15:11:07.443Z,99.40
2018-11-06T15:13:40.409Z,158.00
2018-11-06T15:16:13.308Z,134.25
2018-11-06T15:18:46.826Z,120.50
2018-11-06T15:21:19.467Z,106.25
2018-11-06T15:23:52.142Z,109.75
2018-11-06T15:26:24.541Z,112.75
2018-11-06T15:28:56.674Z,109.25
2018-11-06T15:31:28.834Z,97.20
2018-11-06T15:34:01.291Z,95.20
2018-11-06T15:36:34.218Z,98.60
2018-11-06T15:39:08.713Z,91.20
2018-11-06T15:41:41.961Z,93.00
2018-11-06T15:44:13.953Z,100.00
2018-11-06T15:46:46.095Z,96.60
2018-11-06T15:49:18.518Z,96.80
2018-11-06T15:51:50.684Z,103.75
2018-11-06T15:54:23.463Z,100.25
2018-11-06T15:56:55.242Z,96.25
2018-11-06T15:59:27.353Z,108.75
2018-11-06T16:01:59.497Z,105.25
2018-11-06T16:04:31.722Z,100.00
2018-11-06T16:07:04.351Z,105.75
2018-11-06T16:09:37.277Z,109.75
2018-11-06T16:12:09.628Z,100.20
2018-11-06T16:14:42.452Z,105.00
2018-11-06T16:17:15.551Z,102.75
2018-11-06T16:19:48.862Z,102.25
2018-11-06T16:22:21.944Z,99.25
2018-11-06T16:24:55.199Z,92.20
2018-11-06T16:27:28.538Z,107.75
2018-11-06T16:30:00.982Z,104.00
2018-11-06T16:32:33.257Z,103.00
2018-11-06T16:35:05.638Z,106.50
2018-11-06T16:37:38.139Z,94.00
2018-11-06T16:40:10.562Z,101.25
2018-11-06T16:42:43.270Z,103.50
2018-11-06T16:45:16.833Z,96.00
2018-11-06T16:47:49.886Z,100.00
2018-11-06T16:50:22.045Z,102.25
2018-11-06T16:52:54.093Z,103.25
2018-11-06T16:55:26.282Z,109.25
2018-11-06T16:57:58.257Z,112.25
2018-11-06T17:00:30.523Z,103.00
2018-11-06T17:03:02.862Z,102.75
2018-11-06T17:05:34.639Z,160.50
2018-11-06T17:08:07.171Z,168.25
2018-11-06T17:10:39.243Z,168.75
2018-11-06T17:13:11.033Z,168.00
2018-11-06T17:15:42.913Z,176.00
2018-11-06T17:18:15.083Z,184.80
2018-11-06T17:20:46.640Z,199.20
2018-11-06T17:23:18.707Z,182.60
2018-11-06T17:25:50.569Z,186.20
2018-11-06T17:28:23.051Z,182.40
2018-11-06T17:30:55.256Z,175.60
2018-11-06T17:33:27.541Z,181.60
2018-11-06T17:35:59.458Z,184.40
2018-11-06T17:38:32.313Z,171.75
2018-11-06T17:41:04.446Z,173.00
2018-11-06T17:43:36.634Z,179.40
2018-11-06T17:46:08.840Z,185.00
2018-11-06T17:48:40.923Z,185.80
2018-11-06T17:51:12.879Z,184.80
2018-11-06T17:53:44.959Z,184.60
2018-11-06T17:56:16.971Z,179.60
2018-11-06T17:58:49.091Z,178.00
2018-11-06T18:01:21.262Z,156.00
2018-11-06T18:03:53.276Z,154.75
2018-11-06T18:06:25.677Z,151.75
2018-11-06T18:08:58.337Z,154.25
2018-11-06T18:11:30.545Z,154.75
2018-11-06T18:14:02.421Z,151.50
2018-11-06T18:16:34.300Z,153.00
2018-11-06T18:19:06.230Z,153.50
2018-11-06T18:21:38.220Z,152.75
2018-11-06T18:24:10.385Z,140.50
2018-11-06T18:26:42.497Z,144.50
2018-11-06T18:29:14.467Z,138.50
2018-11-06T18:31:47.539Z,134.25
2018-11-06T18:34:19.576Z,129.75
2018-11-06T18:36:52.200Z,130.25
2018-11-06T18:39:25.104Z,131.75
2018-11-06T18:41:57.146Z,130.50
2018-11-06T18:44:29.355Z,124.00
2018-11-06T18:47:01.567Z,115.25
2018-11-06T18:49:33.573Z,116.75
2018-11-06T18:52:05.732Z,118.50
2018-11-06T18:54:37.875Z,118.00
2018-11-06T18:57:10.062Z,108.25
2018-11-06T18:59:42.195Z,108.50
2018-11-06T19:02:14.248Z,97.00
2018-11-06T19:04:46.047Z,104.40
2018-11-06T19:07:17.943Z,107.50
2018-11-06T19:09:50.847Z,103.20
2018-11-06T19:12:22.803Z,99.00
2018-11-06T19:14:55.219Z,88.60
2018-11-06T19:17:27.366Z,84.80
2018-11-06T19:19:59.512Z,90.20
2018-11-06T19:22:31.465Z,88.00
2018-11-06T19:25:03.453Z,79.80
2018-11-06T19:27:35.465Z,87.00
2018-11-06T19:30:09.013Z,80.40
2018-11-06T19:32:41.856Z,81.00
2018-11-06T19:35:14.209Z,79.60
2018-11-06T19:37:46.380Z,83.60
2018-11-06T19:40:19.363Z,79.20
2018-11-06T19:42:51.508Z,78.60
2018-11-06T19:45:23.668Z,78.00
2018-11-06T19:47:55.867Z,74.00
2018-11-06T19:50:27.742Z,76.80
2018-11-06T19:52:59.958Z,77.60
2018-11-06T19:55:31.894Z,74.00
2018-11-06T19:58:03.797Z,72.00
2018-11-06T20:00:35.935Z,72.00
2018-11-06T20:03:08.278Z,73.00
2018-11-06T20:05:40.151Z,71.80
2018-11-06T20:08:12.140Z,67.40
2018-11-06T20:10:44.589Z,68.60
2018-11-06T20:13:16.639Z,70.00
2018-11-06T20:15:48.780Z,64.40
2018-11-06T20:18:21.034Z,62.20
2018-11-06T20:20:53.027Z,65.80
2018-11-06T20:23:26.126Z,62.40
2018-11-06T20:25:58.747Z,64.40
2018-11-06T20:28:30.948Z,61.40
2018-11-06T20:31:02.979Z,67.00
2018-11-06T20:33:35.717Z,63.80
2018-11-06T20:36:07.721Z,65.00
2018-11-06T20:38:39.836Z,62.80
2018-11-06T20:41:11.974Z,64.80
2018-11-06T20:43:44.184Z,62.40
2018-11-06T20:46:16.047Z,66.20
2018-11-06T20:48:48.415Z,65.60
2018-11-06T20:51:20.663Z,60.60
2018-11-06T20:53:52.926Z,65.40
2018-11-06T20:56:24.585Z,61.00
2018-11-06T20:58:56.838Z,60.20
2018-11-06T21:01:28.486Z,62.20
2018-11-06T21:04:00.929Z,64.40
2018-11-06T21:06:35.206Z,64.20
2018-11-06T21:09:09.563Z,63.80
2018-11-06T21:11:42.236Z,62.40
2018-11-06T21:14:14.512Z,59.60
2018-11-06T21:16:46.419Z,63.00
2018-11-06T21:19:18.337Z,65.00
2018-11-06T21:21:50.193Z,61.40
2018-11-06T21:24:22.495Z,65.00
2018-11-06T21:26:54.567Z,60.80
2018-11-06T21:29:26.621Z,64.60
2018-11-06T21:31:58.609Z,62.40
2018-11-06T21:34:31.790Z,62.40
2018-11-06T21:37:03.933Z,62.00
2018-11-06T21:39:36.109Z,68.60
2018-11-06T21:42:08.159Z,67.40
2018-11-06T21:44:40.467Z,63.60
2018-11-06T21:47:12.514Z,64.80
2018-11-06T21:49:44.715Z,61.40
2018-11-06T21:52:16.839Z,67.60
2018-11-06T21:54:48.920Z,61.40
2018-11-06T21:57:20.985Z,62.20
2018-11-06T21:59:53.285Z,66.60
2018-11-06T22:02:25.316Z,61.20
2018-11-06T22:04:57.471Z,66.60
2018-11-06T22:07:29.469Z,67.80
2018-11-06T22:10:01.887Z,66.80
2018-11-06T22:12:34.178Z,61.60
2018-11-06T22:15:07.169Z,65.20
2018-11-06T22:17:39.384Z,67.80
2018-11-06T22:20:13.305Z,67.20
2018-11-06T22:22:45.826Z,66.80
2018-11-06T22:25:17.942Z,66.00
2018-11-06T22:27:49.809Z,66.20
2018-11-06T22:30:21.887Z,68.60
2018-11-06T22:32:53.814Z,71.40
2018-11-06T22:35:25.772Z,67.00
2018-11-06T22:37:57.685Z,71.20
2018-11-06T22:40:29.943Z,68.60
2018-11-06T22:43:02.334Z,67.60
2018-11-06T22:45:34.477Z,68.00
2018-11-06T22:48:06.577Z,66.40
2018-11-06T22:50:38.828Z,64.60
2018-11-06T22:53:10.985Z,59.60
2018-11-06T22:55:43.153Z,63.80
2018-11-06T22:58:14.974Z,65.20
2018-11-06T23:00:51.979Z,64.60
2018-11-06T23:03:23.971Z,65.60
2018-11-06T23:05:56.235Z,62.20
2018-11-06T23:08:29.167Z,64.00
2018-11-06T23:11:01.216Z,60.40
2018-11-06T23:13:33.741Z,62.80
2018-11-06T23:16:06.442Z,58.80
2018-11-06T23:18:38.999Z,60.20
2018-11-06T23:21:11.142Z,54.20
2018-11-06T23:23:42.945Z,57.60
2018-11-06T23:26:14.954Z,57.20
2018-11-06T23:28:47.044Z,53.80
2018-11-06T23:31:19.271Z,55.60
2018-11-06T23:33:51.337Z,54.40
2018-11-06T23:36:23.493Z,51.20
2018-11-06T23:38:55.636Z,54.60
2018-11-06T23:41:27.675Z,52.40
2018-11-06T23:44:00.129Z,52.80
2018-11-06T23:46:32.266Z,50.20
2018-11-06T23:49:04.450Z,55.60
2018-11-06T23:51:36.407Z,51.80
2018-11-06T23:54:08.587Z,56.80
2018-11-06T23:56:40.624Z,50.20
2018-11-06T23:59:12.606Z,52.20
